Time;durP1;ratioP1;P1;durP2;ratioP2;P2;SDS_P1;SDS_P2;PMS_P1;PMS_P2;Temp;Humidity;BMP_temperature;BMP_pressure;BME280_temperature;BME280_humidity;BME280_pressure;Samples;Min_cycle;Max_cycle;Signal;HPM_P1;HPM_P2
2021/01/04 00:00:09;;;;;;;118.68;58.28;;;;;;;1.12;100.00;98711.50;2086141;28;20222;-75
2021/01/04 00:01:31;;;;;;;124.63;62.00;;;;;;;1.15;100.00;98719.97;2090277;28;20222;-75
2021/01/04 00:02:46;;;;;;;131.95;62.33;;;;;;;1.08;100.00;98704.38;2105230;28;20623;-75
2021/01/04 00:03:57;;;;;;;131.23;63.05;;;;;;;1.07;100.00;98710.66;2105635;28;20228;-75
2021/01/04 00:05:05;;;;;;;131.13;65.35;;;;;;;1.03;100.00;98701.66;2105195;28;20282;-75
2021/01/04 00:06:21;;;;;;;142.70;64.50;;;;;;;1.00;100.00;98702.94;2093817;28;20222;-75
2021/01/04 00:07:39;;;;;;;132.15;63.13;;;;;;;0.92;100.00;98695.47;2105581;28;20221;-75
2021/01/04 00:08:49;;;;;;;128.52;62.72;;;;;;;0.87;100.00;98697.22;2103920;28;20221;-75
2021/01/04 00:10:13;;;;;;;136.20;65.88;;;;;;;0.84;100.00;98695.88;2105684;28;20220;-75
2021/01/04 00:11:31;;;;;;;129.40;62.83;;;;;;;0.81;100.00;98696.38;2105688;28;20576;-74
2021/01/04 00:12:37;;;;;;;136.63;65.13;;;;;;;0.76;100.00;98697.09;2097512;28;20664;-74
2021/01/04 00:13:42;;;;;;;134.68;63.97;;;;;;;0.73;100.00;98691.53;2104931;28;20229;-75
2021/01/04 00:14:52;;;;;;;127.55;63.72;;;;;;;0.67;100.00;98687.25;2097815;28;20226;-75
2021/01/04 00:15:56;;;;;;;143.10;68.78;;;;;;;0.67;100.00;98692.50;2105327;28;20221;-75
2021/01/04 00:17:03;;;;;;;139.70;67.50;;;;;;;0.60;100.00;98681.34;2105619;28;20247;-75
2021/01/04 00:18:44;;;;;;;144.48;69.05;;;;;;;0.62;100.00;98689.81;2097776;28;20226;-75
2021/01/04 00:19:49;;;;;;;145.07;69.55;;;;;;;0.60;100.00;98686.59;2092469;28;20213;-75
2021/01/04 00:20:53;;;;;;;145.13;68.70;;;;;;;0.55;100.00;98674.22;2096976;28;20218;-74
2021/01/04 00:22:01;;;;;;;143.68;69.50;;;;;;;0.59;100.00;98687.66;2104986;28;20224;-75
2021/01/04 00:23:13;;;;;;;127.95;63.00;;;;;;;0.54;100.00;98683.94;2097998;28;20638;-75
2021/01/04 00:24:19;;;;;;;130.90;64.88;;;;;;;0.51;100.00;98691.47;2105353;28;20217;-75
2021/01/04 00:25:25;;;;;;;136.95;66.22;;;;;;;0.51;100.00;98688.84;2105374;28;20213;-75
2021/01/04 00:26:28;;;;;;;127.57;64.30;;;;;;;0.47;100.00;98685.91;2105553;28;20225;-75
2021/01/04 00:27:33;;;;;;;128.48;66.18;;;;;;;0.36;100.00;98676.31;2113609;28;20224;-74
2021/01/04 00:28:36;;;;;;;135.82;66.53;;;;;;;0.42;100.00;98691.06;2101174;28;20222;-75
2021/01/04 00:29:37;;;;;;;133.15;65.38;;;;;;;0.36;100.00;98683.38;2101254;28;20241;-75
2021/01/04 00:30:41;;;;;;;133.90;62.97;;;;;;;0.34;100.00;98698.53;2105698;28;20232;-75
2021/01/04 00:31:44;;;;;;;131.10;64.18;;;;;;;0.32;100.00;98696.16;2106057;28;20734;-75
2021/01/04 00:32:46;;;;;;;126.82;64.90;;;;;;;0.19;100.00;98692.03;2104869;28;20296;-75
2021/01/04 00:33:50;;;;;;;137.27;67.03;;;;;;;0.23;100.00;98702.84;2097051;28;20301;-75
2021/01/04 00:34:53;;;;;;;134.20;64.40;;;;;;;0.18;100.00;98694.91;2105355;28;20221;-75
2021/01/04 00:35:56;;;;;;;126.10;61.60;;;;;;;0.11;100.00;98691.63;2105553;28;20245;-75
2021/01/04 00:37:10;;;;;;;131.63;64.03;;;;;;;0.09;100.00;98696.28;2105995;28;20694;-75
2021/01/04 00:38:49;;;;;;;129.27;63.65;;;;;;;0.01;100.00;98694.06;2104837;28;20225;-75
2021/01/04 00:39:54;;;;;;;132.60;60.83;;;;;;;-0.06;100.00;98702.88;2101457;28;20222;-74
2021/01/04 00:41:06;;;;;;;138.88;64.30;;;;;;;-0.10;100.00;98708.81;2104969;28;20278;-75
2021/01/04 00:42:15;;;;;;;136.75;65.10;;;;;;;-0.16;100.00;98694.84;2105521;28;20228;-75
2021/01/04 00:43:22;;;;;;;125.13;61.13;;;;;;;-0.20;100.00;98696.31;2104614;28;20229;-75
2021/01/04 00:44:28;;;;;;;126.25;62.30;;;;;;;-0.21;100.00;98694.75;2095481;28;20218;-74
2021/01/04 00:45:34;;;;;;;137.73;67.88;;;;;;;-0.28;100.00;98700.13;2096856;28;20224;-75
2021/01/04 00:46:37;;;;;;;143.95;67.22;;;;;;;-0.27;100.00;98708.78;2105245;28;20283;-75
2021/01/04 00:47:50;;;;;;;148.88;69.38;;;;;;;-0.34;100.00;98687.16;2105577;28;20578;-75
2021/01/04 00:49:00;;;;;;;136.15;65.35;;;;;;;-0.35;100.00;98696.88;2105940;28;20225;-74
2021/01/04 00:50:05;;;;;;;144.60;71.45;;;;;;;-0.36;100.00;98694.44;2104654;28;20687;-74
2021/01/04 00:51:17;;;;;;;156.20;73.53;;;;;;;-0.38;100.00;98697.31;2105287;28;20232;-74
2021/01/04 00:52:25;;;;;;;150.00;72.75;;;;;;;-0.41;100.00;98697.78;2105645;28;20304;-75
2021/01/04 00:53:31;;;;;;;154.27;74.38;;;;;;;-0.41;100.00;98702.22;2105229;28;20233;-75
2021/01/04 00:54:41;;;;;;;150.32;71.75;;;;;;;-0.41;100.00;98702.22;2104103;28;20223;-74
2021/01/04 00:56:17;;;;;;;149.32;70.60;;;;;;;-0.56;100.00;98679.16;2096523;28;20230;-75
2021/01/04 00:57:30;;;;;;;144.40;68.95;;;;;;;-0.48;100.00;98696.31;2078496;28;20747;-75
2021/01/04 00:59:06;;;;;;;151.13;72.57;;;;;;;-0.51;100.00;98697.59;2095880;28;20591;-75
2021/01/04 01:00:13;;;;;;;146.00;69.20;;;;;;;-0.53;100.00;98691.78;2102772;28;20236;-75
2021/01/04 01:01:16;;;;;;;152.05;69.25;;;;;;;-0.63;100.00;98684.50;2105894;28;20224;-75
2021/01/04 01:02:28;;;;;;;155.23;73.47;;;;;;;-0.57;100.00;98695.91;2105078;28;20305;-75
2021/01/04 01:03:45;;;;;;;147.18;70.88;;;;;;;-0.58;100.00;98696.94;2097168;28;20222;-75
2021/01/04 01:04:49;;;;;;;147.50;71.53;;;;;;;-0.73;100.00;98675.66;2090179;28;20336;-75
2021/01/04 01:05:59;;;;;;;155.90;72.05;;;;;;;-0.61;100.00;98703.44;2096749;28;20256;-74
2021/01/04 01:07:03;;;;;;;149.75;69.45;;;;;;;-0.61;100.00;98703.44;2104449;28;20252;-74
2021/01/04 01:08:19;;;;;;;149.32;71.85;;;;;;;-0.62;100.00;98703.66;2105036;28;20225;-75
2021/01/04 01:09:21;;;;;;;149.73;72.00;;;;;;;-0.67;100.00;98688.63;2105559;28;20221;-74
2021/01/04 01:10:24;;;;;;;140.98;67.63;;;;;;;-0.61;100.00;98708.69;2105411;28;20229;-74
2021/01/04 01:11:49;;;;;;;143.98;67.78;;;;;;;-0.55;100.00;98708.75;2105550;28;20671;-74
2021/01/04 01:12:55;;;;;;;139.75;69.78;;;;;;;-0.54;100.00;98715.59;2096171;28;20232;-74
2021/01/04 01:14:05;;;;;;;143.73;70.68;;;;;;;-0.60;100.00;98705.03;2096454;28;20233;-74
2021/01/04 01:15:20;;;;;;;150.65;70.65;;;;;;;-0.57;100.00;98714.25;2096951;28;20295;-74
2021/01/04 01:16:30;;;;;;;166.13;74.78;;;;;;;-0.61;100.00;98702.63;2106262;28;20242;-74
2021/01/04 01:17:48;;;;;;;152.15;72.20;;;;;;;-0.66;100.00;98705.16;2105713;28;20217;-74
2021/01/04 01:18:58;;;;;;;149.77;72.18;;;;;;;-0.63;100.00;98715.16;2096181;28;20222;-74
2021/01/04 01:20:00;;;;;;;152.43;72.00;;;;;;;-0.68;100.00;98708.00;2096233;28;20279;-74
2021/01/04 01:21:03;;;;;;;145.52;72.03;;;;;;;-0.66;100.00;98716.41;2097089;28;20610;-74
2021/01/04 01:22:05;;;;;;;151.52;75.50;;;;;;;-0.69;100.00;98711.66;2096107;28;20578;-74
2021/01/04 01:23:07;;;;;;;162.40;75.43;;;;;;;-0.69;100.00;98710.84;2096527;28;20229;-74
2021/01/04 01:24:09;;;;;;;160.48;73.47;;;;;;;-0.70;100.00;98706.63;2102546;28;20236;-74
2021/01/04 01:25:14;;;;;;;152.63;73.07;;;;;;;-0.70;100.00;98714.47;2104889;28;20593;-74
2021/01/04 01:26:29;;;;;;;157.88;74.50;;;;;;;-0.72;100.00;98712.09;2105670;28;20232;-74
2021/01/04 01:27:58;;;;;;;154.73;74.05;;;;;;;-0.73;100.00;98715.75;2096809;28;20221;-74
2021/01/04 01:29:32;;;;;;;157.10;76.07;;;;;;;-0.79;100.00;98708.00;2098875;28;20229;-74
2021/01/04 01:31:04;;;;;;;160.73;74.43;;;;;;;-0.80;100.00;98709.84;2100466;28;20233;-74
2021/01/04 01:32:50;;;;;;;149.30;69.32;;;;;;;-0.88;100.00;98710.19;2104655;28;20225;-74
2021/01/04 01:34:07;;;;;;;148.70;71.05;;;;;;;-0.81;100.00;98726.56;2095202;28;20604;-74
2021/01/04 01:35:21;;;;;;;153.07;70.95;;;;;;;-0.93;100.00;98707.47;2104468;28;20600;-74
2021/01/04 01:36:28;;;;;;;147.63;70.97;;;;;;;-0.87;100.00;98722.25;2097011;28;20222;-74
2021/01/04 01:37:40;;;;;;;153.73;72.65;;;;;;;-0.87;100.00;98724.88;2105411;28;20228;-74
2021/01/04 01:39:10;;;;;;;146.90;72.57;;;;;;;-0.91;100.00;98726.38;2104244;28;20221;-74
2021/01/04 01:40:26;;;;;;;143.15;70.63;;;;;;;-0.88;100.00;98728.53;2091245;28;20313;-74
2021/01/04 01:42:00;;;;;;;162.15;75.32;;;;;;;-0.94;100.00;98725.00;2104490;28;20225;-74
2021/01/04 01:43:23;;;;;;;145.25;71.38;;;;;;;-0.95;100.00;98723.44;2095562;28;20226;-74
2021/01/04 01:44:28;;;;;;;140.60;69.65;;;;;;;-0.94;100.00;98730.25;2104158;28;20240;-74
2021/01/04 01:45:30;;;;;;;154.32;72.50;;;;;;;-0.96;100.00;98727.03;2097368;28;20660;-74
2021/01/04 01:46:36;;;;;;;152.35;72.45;;;;;;;-0.92;100.00;98722.16;2095435;28;20238;-74
2021/01/04 01:47:45;;;;;;;151.68;74.18;;;;;;;-0.95;100.00;98725.25;2088472;28;20226;-74
2021/01/04 01:48:53;;;;;;;145.93;72.65;;;;;;;-0.92;100.00;98728.19;2097136;28;20226;-74
2021/01/04 01:50:03;;;;;;;151.52;72.20;;;;;;;-0.92;100.00;98720.34;2106112;28;20244;-75
2021/01/04 01:51:09;;;;;;;143.82;72.43;;;;;;;-0.91;100.00;98721.13;2105431;28;20219;-75
2021/01/04 01:52:18;;;;;;;145.85;71.30;;;;;;;-0.91;100.00;98723.75;2104897;28;20316;-75
2021/01/04 01:53:26;;;;;;;153.88;74.55;;;;;;;-0.90;100.00;98725.34;2105388;28;20274;-75
2021/01/04 01:54:37;;;;;;;152.25;72.28;;;;;;;-0.98;100.00;98715.22;2101435;28;22481;-75
2021/01/04 01:55:49;;;;;;;151.88;70.85;;;;;;;-0.93;100.00;98723.19;2089101;28;20272;-75
2021/01/04 01:57:01;;;;;;;146.07;70.90;;;;;;;-0.94;100.00;98726.84;2096389;28;20218;-74
2021/01/04 01:58:21;;;;;;;145.13;69.78;;;;;;;-0.96;100.00;98721.00;2104553;28;20636;-75
2021/01/04 01:59:53;;;;;;;138.73;69.55;;;;;;;-1.03;100.00;98710.69;2106428;28;20255;-75
2021/01/04 02:00:58;;;;;;;149.82;69.38;;;;;;;-1.03;100.00;98715.91;2096192;28;20301;-74
2021/01/04 02:02:04;;;;;;;148.80;71.07;;;;;;;-1.01;100.00;98720.91;2096337;28;20253;-75
2021/01/04 02:03:09;;;;;;;161.43;71.60;;;;;;;-1.02;100.00;98717.50;2097401;28;20312;-75
2021/01/04 02:04:19;;;;;;;148.65;72.07;;;;;;;-1.02;100.00;98714.09;2105463;28;20225;-74
2021/01/04 02:05:28;;;;;;;152.85;72.65;;;;;;;-1.04;100.00;98713.50;2096191;28;20267;-74
2021/01/04 02:06:36;;;;;;;159.68;73.28;;;;;;;-1.05;100.00;98709.28;2095836;28;20238;-75
2021/01/04 02:07:39;;;;;;;149.27;73.18;;;;;;;-1.10;100.00;98703.97;2102387;28;20719;-75
2021/01/04 02:08:43;;;;;;;134.70;71.03;;;;;;;-1.08;100.00;98715.00;2105182;28;20225;-75
2021/01/04 02:09:48;;;;;;;142.60;69.45;;;;;;;-1.09;100.00;98710.78;2105340;28;20552;-73
2021/01/04 02:10:52;;;;;;;146.57;70.65;;;;;;;-1.14;100.00;98696.56;2104477;28;20614;-73
2021/01/04 02:12:00;;;;;;;152.32;72.90;;;;;;;-1.07;100.00;98709.53;2096941;28;20225;-74
2021/01/04 02:13:07;;;;;;;157.02;72.68;;;;;;;-1.08;100.00;98701.91;2103737;28;20221;-74
2021/01/04 02:14:12;;;;;;;144.77;75.50;;;;;;;-1.04;100.00;98703.84;2096207;28;20276;-75
2021/01/04 02:15:15;;;;;;;156.13;77.32;;;;;;;-1.00;100.00;98706.81;2096653;28;20624;-74
2021/01/04 02:16:21;;;;;;;157.20;76.85;;;;;;;-1.00;100.00;98706.81;2095983;28;20221;-74
2021/01/04 02:18:02;;;;;;;160.40;77.28;;;;;;;-0.97;100.00;98712.34;2104248;28;20230;-75
2021/01/04 02:19:14;;;;;;;156.75;74.20;;;;;;;-0.95;100.00;98706.91;2104339;28;20305;-74
2021/01/04 02:20:52;;;;;;;155.98;76.85;;;;;;;-0.93;100.00;98704.84;2104825;28;20225;-74
2021/01/04 02:22:12;;;;;;;154.32;74.55;;;;;;;-0.88;100.00;98699.72;2103574;28;20229;-74
2021/01/04 02:23:20;;;;;;;153.52;74.95;;;;;;;-0.81;100.00;98700.38;2096226;28;20632;-75
2021/01/04 02:24:23;;;;;;;157.23;74.32;;;;;;;-0.82;100.00;98701.41;2096897;28;20668;-74
2021/01/04 02:25:27;;;;;;;159.52;75.75;;;;;;;-0.77;100.00;98698.91;2103462;28;20221;-74
2021/01/04 02:26:29;;;;;;;159.95;76.93;;;;;;;-0.66;100.00;98700.69;2104464;28;20287;-75
2021/01/04 02:27:33;;;;;;;167.23;81.38;;;;;;;-0.57;100.00;98693.28;2104339;28;20240;-74
2021/01/04 02:28:36;;;;;;;150.30;75.72;;;;;;;-0.41;100.00;98710.09;2096433;28;20210;-75
2021/01/04 02:29:37;;;;;;;163.20;76.35;;;;;;;-0.40;100.00;98704.63;2104013;28;20282;-73
2021/01/04 02:30:38;;;;;;;159.57;78.85;;;;;;;-0.44;100.00;98706.09;2104135;28;20252;-75
2021/01/04 02:31:41;;;;;;;165.80;77.97;;;;;;;-0.46;100.00;98710.78;2104297;28;20249;-75
2021/01/04 02:32:43;;;;;;;156.88;77.82;;;;;;;-0.53;100.00;98704.88;2103240;28;20233;-74
2021/01/04 02:33:44;;;;;;;164.45;77.35;;;;;;;-0.48;100.00;98710.22;2104345;28;20701;-75
2021/01/04 02:34:46;;;;;;;151.77;73.15;;;;;;;-0.47;100.00;98708.41;2105221;28;20221;-74
2021/01/04 02:35:48;;;;;;;161.55;76.70;;;;;;;-0.54;100.00;98707.72;2103960;28;20220;-74
2021/01/04 02:36:52;;;;;;;152.32;76.80;;;;;;;-0.49;100.00;98713.88;2096136;28;20218;-74
2021/01/04 02:37:53;;;;;;;159.73;76.10;;;;;;;-0.50;100.00;98717.53;2104015;28;20225;-75
2021/01/04 02:39:03;;;;;;;151.07;74.93;;;;;;;-0.55;100.00;98708.75;2105080;28;20275;-75
2021/01/04 02:40:07;;;;;;;151.65;75.88;;;;;;;-0.52;100.00;98722.22;2105212;28;20282;-74
2021/01/04 02:41:08;;;;;;;155.23;74.00;;;;;;;-0.51;100.00;98720.38;2103936;28;20236;-75
2021/01/04 02:42:13;;;;;;;151.77;75.18;;;;;;;-0.50;100.00;98722.75;2104420;28;20257;-74
2021/01/04 02:43:14;;;;;;;171.93;77.97;;;;;;;-0.51;100.00;98715.16;2105149;28;20303;-75
2021/01/04 02:44:15;;;;;;;157.27;79.13;;;;;;;-0.52;100.00;98718.75;2104313;28;20217;-75
2021/01/04 02:45:21;;;;;;;157.38;76.55;;;;;;;-0.49;100.00;98720.94;2104377;28;20221;-75
2021/01/04 02:46:23;;;;;;;156.88;74.45;;;;;;;-0.51;100.00;98726.41;2095611;28;20708;-75
2021/01/04 02:47:44;;;;;;;152.57;73.82;;;;;;;-0.57;100.00;98722.88;2096096;28;20229;-74
2021/01/04 02:48:56;;;;;;;151.32;77.00;;;;;;;-0.54;100.00;98729.47;2103928;28;20305;-75
2021/01/04 02:50:06;;;;;;;161.77;74.93;;;;;;;-0.57;100.00;98728.13;2097222;28;20226;-74
2021/01/04 02:51:11;;;;;;;145.52;74.07;;;;;;;-0.65;100.00;98723.25;2103991;28;20312;-75
2021/01/04 02:52:14;;;;;;;145.88;72.53;;;;;;;-0.66;100.00;98718.25;2097321;28;20230;-75
2021/01/04 02:53:26;;;;;;;150.73;76.95;;;;;;;-0.63;100.00;98715.16;2087219;28;20215;-75
2021/01/04 02:54:30;;;;;;;155.27;75.30;;;;;;;-0.66;100.00;98713.81;2095162;28;20684;-75
2021/01/04 02:55:42;;;;;;;155.00;74.13;;;;;;;-0.66;100.00;98710.38;2095948;28;20642;-75
2021/01/04 02:56:44;;;;;;;151.82;76.28;;;;;;;-0.70;100.00;98701.38;2096939;28;20222;-75
2021/01/04 02:57:50;;;;;;;152.07;76.68;;;;;;;-0.69;100.00;98708.25;2096725;28;20236;-75
2021/01/04 02:59:00;;;;;;;141.50;73.95;;;;;;;-0.73;100.00;98705.28;2095452;28;20229;-75
2021/01/04 03:00:07;;;;;;;148.65;74.88;;;;;;;-0.85;100.00;98694.03;2096269;28;20574;-75
2021/01/04 03:01:11;;;;;;;158.55;74.38;;;;;;;-0.82;100.00;98705.84;2104141;28;20298;-74
2021/01/04 03:02:15;;;;;;;159.63;78.85;;;;;;;-0.80;100.00;98714.28;2103966;28;20238;-74
2021/01/04 03:03:17;;;;;;;171.23;80.22;;;;;;;-0.80;100.00;98715.06;2104490;28;20220;-75
2021/01/04 03:04:20;;;;;;;168.50;78.80;;;;;;;-0.83;100.00;98701.66;2103736;28;20296;-74
2021/01/04 03:05:23;;;;;;;169.23;82.70;;;;;;;-0.76;100.00;98715.41;2104512;28;20224;-75
2021/01/04 03:06:30;;;;;;;168.18;84.20;;;;;;;-0.86;100.00;98700.31;2104458;28;20279;-74
2021/01/04 03:07:32;;;;;;;176.15;86.68;;;;;;;-0.76;100.00;98721.47;2105037;28;20212;-74
2021/01/04 03:08:33;;;;;;;167.90;82.85;;;;;;;-0.75;100.00;98717.00;2104231;28;20224;-74
2021/01/04 03:09:34;;;;;;;176.88;85.80;;;;;;;-0.79;100.00;98721.91;2104350;28;20233;-75
2021/01/04 03:10:38;;;;;;;169.87;84.00;;;;;;;-0.76;100.00;98721.47;2105282;28;20217;-74
2021/01/04 03:11:40;;;;;;;178.52;85.72;;;;;;;-0.74;100.00;98724.63;2095481;28;20460;-75
2021/01/04 03:12:41;;;;;;;177.75;87.53;;;;;;;-0.76;100.00;98716.22;2087454;28;20226;-75
2021/01/04 03:13:53;;;;;;;178.57;84.10;;;;;;;-0.79;100.00;98711.44;2096727;28;20695;-75
2021/01/04 03:15:20;;;;;;;188.13;87.32;;;;;;;-0.93;100.00;98691.78;2104144;28;20233;-75
2021/01/04 03:16:26;;;;;;;176.75;86.13;;;;;;;-0.84;100.00;98706.09;2094758;28;20221;-74
2021/01/04 03:17:35;;;;;;;177.10;86.75;;;;;;;-0.80;100.00;98717.69;2097273;28;20233;-75
2021/01/04 03:18:44;;;;;;;162.25;80.70;;;;;;;-0.81;100.00;98713.47;2098240;28;20304;-75
2021/01/04 03:19:47;;;;;;;163.63;80.35;;;;;;;-0.84;100.00;98713.16;2105396;28;20646;-75
2021/01/04 03:20:49;;;;;;;163.63;79.00;;;;;;;-0.84;100.00;98718.41;2105982;28;20218;-75
2021/01/04 03:21:58;;;;;;;151.43;76.75;;;;;;;-0.88;100.00;98718.03;2106503;28;20255;-75
2021/01/04 03:22:59;;;;;;;160.82;78.43;;;;;;;-0.93;100.00;98715.34;2106233;28;20581;-75
2021/01/04 03:24:00;;;;;;;174.13;79.88;;;;;;;-0.92;100.00;98722.16;2106492;28;20315;-74
2021/01/04 03:25:02;;;;;;;165.40;78.20;;;;;;;-0.95;100.00;98717.41;2106463;28;20229;-75
2021/01/04 03:26:06;;;;;;;171.65;81.82;;;;;;;-0.98;100.00;98723.88;2105230;28;20568;-75
2021/01/04 03:27:10;;;;;;;172.25;84.60;;;;;;;-1.07;100.00;98712.16;2105129;28;20691;-75
2021/01/04 03:28:20;;;;;;;176.18;87.05;;;;;;;-1.01;100.00;98718.31;2098367;28;20229;-75
2021/01/04 03:29:21;;;;;;;186.55;84.90;;;;;;;-1.00;100.00;98719.88;2098382;28;20214;-75
2021/01/04 03:30:23;;;;;;;182.55;90.78;;;;;;;-1.00;100.00;98719.88;2103179;28;20256;-74
2021/01/04 03:31:24;;;;;;;181.50;86.35;;;;;;;-1.07;100.00;98700.88;2090886;28;20218;-75
2021/01/04 03:32:25;;;;;;;180.10;88.63;;;;;;;-1.02;100.00;98716.72;2097437;28;20232;-74
2021/01/04 03:33:26;;;;;;;175.17;82.03;;;;;;;-1.05;100.00;98711.91;2098064;28;20313;-74
2021/01/04 03:34:27;;;;;;;183.43;88.20;;;;;;;-1.02;100.00;98725.34;2096699;28;20218;-74
2021/01/04 03:35:28;;;;;;;179.07;88.30;;;;;;;-1.01;100.00;98723.53;2097646;28;20238;-74
2021/01/04 03:36:29;;;;;;;182.52;86.07;;;;;;;-1.03;100.00;98723.78;2098176;28;20222;-74
2021/01/04 03:37:30;;;;;;;190.30;91.10;;;;;;;-1.06;100.00;98716.34;2098020;28;20698;-74
2021/01/04 03:38:32;;;;;;;183.82;90.10;;;;;;;-1.05;100.00;98723.19;2097336;28;20210;-73
2021/01/04 03:39:33;;;;;;;180.32;86.78;;;;;;;-1.06;100.00;98726.03;2097384;28;20226;-75
2021/01/04 03:40:34;;;;;;;185.23;89.90;;;;;;;-1.08;100.00;98728.88;2098148;28;20224;-75
2021/01/04 03:41:36;;;;;;;175.63;87.77;;;;;;;-1.10;100.00;98736.19;2098042;28;20245;-75
2021/01/04 03:42:37;;;;;;;182.15;88.50;;;;;;;-1.12;100.00;98726.97;2104852;28;20231;-75
2021/01/04 03:43:38;;;;;;;175.17;88.60;;;;;;;-1.14;100.00;98730.56;2105664;28;20312;-75
2021/01/04 03:44:40;;;;;;;186.50;87.95;;;;;;;-1.13;100.00;98726.13;2106449;28;20224;-75
2021/01/04 03:45:41;;;;;;;183.60;84.35;;;;;;;-1.12;100.00;98734.81;2105298;28;20225;-75
2021/01/04 03:46:44;;;;;;;169.38;84.05;;;;;;;-1.12;100.00;98727.75;2105700;28;20233;-75
2021/01/04 03:47:45;;;;;;;165.68;81.05;;;;;;;-1.14;100.00;98733.19;2104804;28;20225;-75
2021/01/04 03:48:46;;;;;;;169.00;82.25;;;;;;;-1.12;100.00;98726.97;2105565;28;20231;-75
2021/01/04 03:49:47;;;;;;;180.47;85.20;;;;;;;-1.14;100.00;98737.63;2105247;28;20292;-75
2021/01/04 03:50:48;;;;;;;187.73;93.03;;;;;;;-1.20;100.00;98726.28;2105846;28;20225;-75
2021/01/04 03:51:50;;;;;;;195.88;92.75;;;;;;;-1.21;100.00;98732.53;2105563;28;20227;-75
2021/01/04 03:52:51;;;;;;;194.60;90.90;;;;;;;-1.19;100.00;98732.31;2105625;28;20225;-75
2021/01/04 03:53:52;;;;;;;170.27;83.33;;;;;;;-1.18;100.00;98739.94;2096682;28;20301;-75
2021/01/04 03:54:53;;;;;;;177.60;84.57;;;;;;;-1.14;100.00;98746.28;2097452;28;20607;-75
2021/01/04 03:55:54;;;;;;;180.33;86.03;;;;;;;-1.14;100.00;98740.25;2097213;28;20246;-75
2021/01/04 03:56:56;;;;;;;183.90;86.32;;;;;;;-1.15;100.00;98736.06;2088754;28;20223;-75
2021/01/04 03:57:57;;;;;;;197.48;89.05;;;;;;;-1.16;100.00;98740.50;2097336;28;20243;-75
2021/01/04 03:58:58;;;;;;;188.07;91.95;;;;;;;-1.16;100.00;98737.06;2097842;28;20222;-75
2021/01/04 03:59:59;;;;;;;181.43;88.67;;;;;;;-1.14;100.00;98735.81;2097189;28;20237;-74
2021/01/04 04:01:00;;;;;;;191.02;91.85;;;;;;;-1.11;100.00;98739.81;2088170;28;20223;-75
2021/01/04 04:02:01;;;;;;;214.83;98.93;;;;;;;-1.02;100.00;98737.66;2097413;28;20311;-75
2021/01/04 04:03:02;;;;;;;217.52;101.88;;;;;;;-0.88;100.00;98728.53;2098249;28;20226;-75
2021/01/04 04:04:03;;;;;;;214.77;105.18;;;;;;;-0.86;100.00;98732.53;2098030;28;20226;-75
2021/01/04 04:05:06;;;;;;;209.38;100.65;;;;;;;-0.79;100.00;98737.63;2097009;28;20229;-75
2021/01/04 04:06:10;;;;;;;207.43;98.75;;;;;;;-0.80;100.00;98730.00;2096834;28;20776;-75
2021/01/04 04:07:11;;;;;;;204.68;99.47;;;;;;;-0.78;100.00;98734.00;2097812;28;20233;-75
2021/01/04 04:08:12;;;;;;;205.37;97.60;;;;;;;-0.77;100.00;98734.78;2096706;28;20253;-75
2021/01/04 04:09:14;;;;;;;202.38;96.88;;;;;;;-0.78;100.00;98738.41;2097073;28;20226;-75
2021/01/04 04:10:17;;;;;;;210.95;101.78;;;;;;;-0.79;100.00;98742.06;2096748;28;20214;-75
2021/01/04 04:11:18;;;;;;;223.38;102.03;;;;;;;-0.80;100.00;98737.84;2089106;28;20627;-74
2021/01/04 04:12:20;;;;;;;209.90;98.87;;;;;;;-0.75;100.00;98748.44;2097015;28;20263;-74
2021/01/04 04:13:21;;;;;;;195.55;96.97;;;;;;;-0.78;100.00;98739.22;2105416;28;20339;-75
2021/01/04 04:14:22;;;;;;;198.93;94.93;;;;;;;-0.73;100.00;98749.00;2104898;28;20282;-75
2021/01/04 04:15:24;;;;;;;195.93;94.78;;;;;;;-0.74;100.00;98745.59;2096690;28;20285;-75
2021/01/04 04:16:27;;;;;;;191.95;91.95;;;;;;;-0.72;100.00;98745.34;2096400;28;20766;-75
2021/01/04 04:17:28;;;;;;;195.38;92.07;;;;;;;-0.71;100.00;98745.13;2097164;28;20249;-74
2021/01/04 04:18:29;;;;;;;181.73;89.70;;;;;;;-0.72;100.00;98743.53;2098047;28;20222;-74
2021/01/04 04:19:30;;;;;;;185.77;91.43;;;;;;;-0.76;100.00;98731.94;2097811;28;20233;-75
2021/01/04 04:20:31;;;;;;;186.37;89.37;;;;;;;-0.82;100.00;98722.38;2097158;28;20300;-75
2021/01/04 04:21:33;;;;;;;177.00;87.63;;;;;;;-0.70;100.00;98746.72;2097186;28;20579;-74
2021/01/04 04:22:34;;;;;;;173.77;85.47;;;;;;;-0.72;100.00;98738.28;2105835;28;20221;-74
2021/01/04 04:23:35;;;;;;;190.20;90.05;;;;;;;-0.72;100.00;98738.28;2105395;28;20552;-75
2021/01/04 04:24:38;;;;;;;187.77;90.43;;;;;;;-0.69;100.00;98750.16;2105245;28;20328;-75
2021/01/04 04:25:39;;;;;;;189.55;90.68;;;;;;;-0.69;100.00;98748.31;2105326;28;20222;-75
2021/01/04 04:26:40;;;;;;;203.63;94.40;;;;;;;-0.83;100.00;98722.59;2106097;28;20809;-75
2021/01/04 04:27:42;;;;;;;197.93;96.63;;;;;;;-0.68;100.00;98744.69;2106209;28;20221;-75
2021/01/04 04:28:43;;;;;;;180.68;89.30;;;;;;;-0.64;100.00;98745.78;2106158;28;20236;-75
2021/01/04 04:29:45;;;;;;;188.73;90.18;;;;;;;-0.63;100.00;98743.97;2104485;28;20240;-74
2021/01/04 04:30:46;;;;;;;185.45;86.55;;;;;;;-0.64;100.00;98745.78;2097136;28;20218;-75
2021/01/04 04:31:48;;;;;;;171.05;86.43;;;;;;;-0.68;100.00;98733.41;2097157;28;20256;-75
2021/01/04 04:32:49;;;;;;;193.98;94.25;;;;;;;-0.63;100.00;98742.16;2105246;28;20229;-75
2021/01/04 04:33:50;;;;;;;178.55;89.57;;;;;;;-0.64;100.00;98740.56;2096961;28;20218;-75
2021/01/04 04:34:52;;;;;;;176.67;84.47;;;;;;;-0.63;100.00;98741.34;2088848;28;20223;-75
2021/01/04 04:35:53;;;;;;;178.15;90.68;;;;;;;-0.66;100.00;98732.13;2096711;28;20558;-74
2021/01/04 04:36:54;;;;;;;182.93;89.13;;;;;;;-0.59;100.00;98742.50;2097731;28;20245;-75
2021/01/04 04:37:55;;;;;;;192.27;91.35;;;;;;;-0.60;100.00;98741.69;2097759;28;20695;-74
2021/01/04 04:38:56;;;;;;;184.63;90.30;;;;;;;-0.59;100.00;98740.66;2097650;28;20225;-74
2021/01/04 04:39:57;;;;;;;166.77;79.03;;;;;;;-0.56;100.00;98736.78;2097586;28;20241;-75
2021/01/04 04:40:58;;;;;;;168.00;83.83;;;;;;;-0.51;100.00;98738.72;2096924;28;20249;-75
2021/01/04 04:42:01;;;;;;;141.50;71.30;;;;;;;-0.48;100.00;98741.66;2096869;28;20230;-74
2021/01/04 04:43:10;;;;;;;126.20;65.55;;;;;;;-0.38;100.00;98731.38;2105346;28;20225;-75
2021/01/04 04:44:21;;;;;;;135.73;66.25;;;;;;;-0.36;100.00;98741.63;2105659;28;20278;-75
2021/01/04 04:45:22;;;;;;;136.68;66.10;;;;;;;-0.35;100.00;98732.72;2105589;28;20580;-75
2021/01/04 04:46:31;;;;;;;139.73;63.85;;;;;;;-0.33;100.00;98736.72;2105090;28;20229;-74
2021/01/04 04:47:52;;;;;;;138.05;69.07;;;;;;;-0.32;100.00;98740.16;2105583;28;20221;-74
2021/01/04 04:48:54;;;;;;;133.07;61.42;;;;;;;-0.34;100.00;98737.75;2097137;28;20230;-75
2021/01/04 04:50:05;;;;;;;129.95;60.65;;;;;;;-0.34;100.00;98729.91;2097558;28;20230;-75
2021/01/04 04:51:23;;;;;;;127.78;60.17;;;;;;;-0.31;100.00;98720.75;2104497;28;20702;-75
2021/01/04 04:52:47;;;;;;;127.93;61.78;;;;;;;-0.22;100.00;98734.28;2102926;28;20228;-75
2021/01/04 04:54:26;;;;;;;118.60;57.28;;;;;;;-0.19;100.00;98726.75;2105780;28;20224;-75
2021/01/04 04:55:40;;;;;;;121.43;58.63;;;;;;;-0.18;100.00;98728.34;2096641;28;20236;-75
2021/01/04 04:56:56;;;;;;;118.07;55.90;;;;;;;-0.14;100.00;98734.72;2096984;28;20662;-75
2021/01/04 04:58:28;;;;;;;114.22;56.22;;;;;;;-0.14;100.00;98734.72;2096031;28;20226;-75
2021/01/04 04:59:40;;;;;;;114.28;57.10;;;;;;;-0.19;100.00;98737.22;2092873;28;20233;-75
2021/01/04 05:01:01;;;;;;;120.03;57.88;;;;;;;-0.19;100.00;98739.84;2096533;28;20301;-74
2021/01/04 05:02:06;;;;;;;131.55;63.88;;;;;;;-0.22;100.00;98729.06;2102685;28;20676;-75
2021/01/04 05:03:26;;;;;;;134.00;68.28;;;;;;;-0.21;100.00;98739.31;2090599;28;20238;-75